createdAt,value
2022-09-11T00:00:20.959Z,99.90
2022-09-11T00:02:28.049Z,99.90
2022-09-11T00:04:35.866Z,99.90
2022-09-11T00:06:45.051Z,99.90
2022-09-11T00:08:55.773Z,99.90
2022-09-11T00:11:07.302Z,99.90
2022-09-11T00:13:15.509Z,99.90
2022-09-11T00:15:22.584Z,99.90
2022-09-11T00:17:29.870Z,99.90
2022-09-11T00:19:37.100Z,99.90
2022-09-11T00:21:46.693Z,99.90
2022-09-11T00:23:54.431Z,99.90
2022-09-11T00:26:05.299Z,99.90
2022-09-11T00:28:15.044Z,99.90
2022-09-11T00:30:22.533Z,99.90
2022-09-11T00:32:29.759Z,99.90
2022-09-11T00:34:37.261Z,99.90
2022-09-11T00:36:45.978Z,99.90
2022-09-11T00:38:53.872Z,99.90
2022-09-11T00:41:02.586Z,99.90
2022-09-11T00:43:13.605Z,99.90
2022-09-11T00:45:26.453Z,99.90
2022-09-11T00:47:34.795Z,99.90
2022-09-11T00:49:46.364Z,99.90
2022-09-11T00:51:58.619Z,99.90
2022-09-11T00:54:07.949Z,99.90
2022-09-11T00:56:14.971Z,99.90
2022-09-11T00:58:26.153Z,99.90
2022-09-11T01:00:33.796Z,99.90
2022-09-11T01:02:43.941Z,99.90
2022-09-11T01:04:52.163Z,99.90
2022-09-11T01:07:03.067Z,99.90
2022-09-11T01:09:10.349Z,99.90
2022-09-11T01:11:34.642Z,99.90
2022-09-11T01:13:51.346Z,99.90
2022-09-11T01:16:08.124Z,99.90
2022-09-11T01:18:23.627Z,99.90
2022-09-11T01:20:51.391Z,99.90
2022-09-11T01:23:32.611Z,99.90
2022-09-11T01:25:55.156Z,99.90
2022-09-11T01:28:07.365Z,99.90
2022-09-11T01:30:18.593Z,99.90
2022-09-11T01:32:32.421Z,99.90
2022-09-11T01:34:47.444Z,99.90
2022-09-11T01:37:00.516Z,99.90
2022-09-11T01:39:08.610Z,99.90
2022-09-11T01:41:21.786Z,99.90
2022-09-11T01:43:32.681Z,99.90
2022-09-11T01:45:44.374Z,99.90
2022-09-11T01:47:54.544Z,99.90
2022-09-11T01:50:05.671Z,99.90
2022-09-11T01:52:18.736Z,99.90
2022-09-11T01:54:31.498Z,99.90
2022-09-11T01:56:45.948Z,99.90
2022-09-11T01:59:01.838Z,99.90
2022-09-11T02:01:13.275Z,99.90
2022-09-11T02:03:25.972Z,99.90
2022-09-11T02:05:39.667Z,99.90
2022-09-11T02:07:52.836Z,99.90
2022-09-11T02:10:05.693Z,99.90
2022-09-11T02:12:19.029Z,99.90
2022-09-11T02:14:32.210Z,99.90
2022-09-11T02:16:52.127Z,99.90
2022-09-11T02:19:03.966Z,99.90
2022-09-11T02:21:10.123Z,99.90
2022-09-11T02:23:18.947Z,99.90
2022-09-11T02:25:25.968Z,99.90
2022-09-11T02:27:36.327Z,99.90
2022-09-11T02:29:45.610Z,99.90
2022-09-11T02:31:54.536Z,99.90
2022-09-11T02:34:02.028Z,99.90
2022-09-11T02:36:39.359Z,99.90
2022-09-11T02:38:58.927Z,99.90
2022-09-11T02:41:15.331Z,99.90
2022-09-11T02:43:45.444Z,99.90
2022-09-11T02:46:06.666Z,99.90
2022-09-11T02:48:25.002Z,99.90
2022-09-11T02:50:41.349Z,99.90
2022-09-11T02:52:57.344Z,99.90
2022-09-11T02:55:13.943Z,99.90
2022-09-11T02:57:24.709Z,99.90
2022-09-11T02:59:35.167Z,99.90
2022-09-11T03:01:54.759Z,99.90
2022-09-11T03:04:04.837Z,99.90
2022-09-11T03:06:15.494Z,99.90
2022-09-11T03:08:23.196Z,99.90
2022-09-11T03:10:30.624Z,99.90
2022-09-11T03:12:37.763Z,99.90
2022-09-11T03:14:45.251Z,99.90
2022-09-11T03:16:54.220Z,99.90
2022-09-11T03:19:01.354Z,99.90
2022-09-11T03:21:12.533Z,99.90
2022-09-11T03:23:20.177Z,99.90
2022-09-11T03:25:29.505Z,99.90
2022-09-11T03:27:40.673Z,99.90
2022-09-11T03:29:48.277Z,99.90
2022-09-11T03:31:59.771Z,99.90
2022-09-11T03:34:07.653Z,99.90
2022-09-11T03:36:14.573Z,99.90
2022-09-11T03:38:21.964Z,99.90
2022-09-11T03:40:29.158Z,99.90
2022-09-11T03:42:37.548Z,99.90
2022-09-11T03:44:44.990Z,99.90
2022-09-11T03:46:53.868Z,99.90
2022-09-11T03:49:02.531Z,99.90
2022-09-11T03:51:10.735Z,99.90
2022-09-11T03:53:19.666Z,99.90
2022-09-11T03:55:27.255Z,99.90
2022-09-11T03:57:37.452Z,99.90
2022-09-11T03:59:45.812Z,99.90
2022-09-11T04:01:53.321Z,99.90
2022-09-11T04:04:02.997Z,99.90
2022-09-11T04:06:15.140Z,99.90
2022-09-11T04:08:23.245Z,99.90
2022-09-11T04:10:30.487Z,99.90
2022-09-11T04:12:38.373Z,99.90
2022-09-11T04:14:46.114Z,99.90
2022-09-11T04:16:53.399Z,99.90
2022-09-11T04:19:06.262Z,99.90
2022-09-11T04:21:15.810Z,99.90
2022-09-11T04:23:24.518Z,99.90
2022-09-11T04:25:32.577Z,99.90
2022-09-11T04:27:41.590Z,99.90
2022-09-11T04:29:53.133Z,99.90
2022-09-11T04:32:01.190Z,99.90
2022-09-11T04:34:13.184Z,99.90
2022-09-11T04:36:22.402Z,97.90
2022-09-11T04:38:30.920Z,97.10
2022-09-11T04:40:38.255Z,96.10
2022-09-11T04:42:45.490Z,96.40
2022-09-11T04:44:53.955Z,96.00
2022-09-11T04:47:01.188Z,95.70
2022-09-11T04:49:09.392Z,95.30
2022-09-11T04:51:25.837Z,94.40
2022-09-11T04:53:33.362Z,94.40
2022-09-11T04:55:42.355Z,95.80
2022-09-11T04:57:49.636Z,95.90
2022-09-11T04:59:57.180Z,92.60
2022-09-11T05:02:04.247Z,94.10
2022-09-11T05:04:15.686Z,94.10
2022-09-11T05:06:24.249Z,94.20
2022-09-11T05:08:33.992Z,94.80
2022-09-11T05:10:43.477Z,94.70
2022-09-11T05:12:50.979Z,94.60
2022-09-11T05:14:58.506Z,94.50
2022-09-11T05:17:05.689Z,93.40
2022-09-11T05:19:16.554Z,93.20
2022-09-11T05:21:28.251Z,93.00
2022-09-11T05:23:35.521Z,91.80
2022-09-11T05:25:42.862Z,89.70
2022-09-11T05:27:50.097Z,90.90
2022-09-11T05:29:57.170Z,90.00
2022-09-11T05:32:04.655Z,90.10
2022-09-11T05:34:12.307Z,90.20
2022-09-11T05:36:20.206Z,90.20
2022-09-11T05:38:30.968Z,89.40
2022-09-11T05:40:37.952Z,88.60
2022-09-11T05:42:45.845Z,88.50
2022-09-11T05:44:53.438Z,88.00
2022-09-11T05:47:01.383Z,88.00
2022-09-11T05:49:09.081Z,88.00
2022-09-11T05:51:17.391Z,86.70
2022-09-11T05:53:25.238Z,87.20
2022-09-11T05:55:37.863Z,86.70
2022-09-11T05:57:45.377Z,85.50
2022-09-11T05:59:52.515Z,86.00
2022-09-11T06:01:59.628Z,85.60
2022-09-11T06:04:16.766Z,84.60
2022-09-11T06:06:26.398Z,83.40
2022-09-11T06:08:35.630Z,83.80
2022-09-11T06:10:49.517Z,84.30
2022-09-11T06:12:57.216Z,84.30
2022-09-11T06:15:04.188Z,85.00
2022-09-11T06:17:11.573Z,83.10
2022-09-11T06:19:19.221Z,82.50
2022-09-11T06:21:30.344Z,82.70
2022-09-11T06:23:43.597Z,82.50
2022-09-11T06:25:55.703Z,82.50
2022-09-11T06:28:02.636Z,82.60
2022-09-11T06:30:11.879Z,83.10
2022-09-11T06:32:21.098Z,83.30
2022-09-11T06:34:28.332Z,82.70
2022-09-11T06:36:38.379Z,82.00
2022-09-11T06:38:47.761Z,81.50
2022-09-11T06:40:58.737Z,80.90
2022-09-11T06:43:06.578Z,80.30
2022-09-11T06:45:14.469Z,80.80
2022-09-11T06:47:22.480Z,81.70
2022-09-11T06:49:29.864Z,82.10
2022-09-11T06:51:49.642Z,82.70
2022-09-11T06:53:59.077Z,83.90
2022-09-11T06:56:14.195Z,84.40
2022-09-11T06:58:23.012Z,84.20
2022-09-11T07:00:30.502Z,84.60
2022-09-11T07:02:37.895Z,84.60
2022-09-11T07:04:45.070Z,85.00
2022-09-11T07:06:53.029Z,85.10
2022-09-11T07:09:03.837Z,85.00
2022-09-11T07:11:22.488Z,85.70
2022-09-11T07:13:34.262Z,85.40
2022-09-11T07:15:45.505Z,83.70
2022-09-11T07:17:52.379Z,83.30
2022-09-11T07:19:59.713Z,83.80
2022-09-11T07:22:06.735Z,83.40
2022-09-11T07:24:14.384Z,83.20
2022-09-11T07:26:27.143Z,82.30
2022-09-11T07:28:39.757Z,82.00
2022-09-11T07:30:46.975Z,82.70
2022-09-11T07:32:54.324Z,82.20
2022-09-11T07:35:03.552Z,81.60
2022-09-11T07:37:10.677Z,81.60
2022-09-11T07:39:19.606Z,81.60
2022-09-11T07:41:37.846Z,81.30
2022-09-11T07:43:57.215Z,81.30
2022-09-11T07:46:06.835Z,82.10
2022-09-11T07:48:14.696Z,82.80
2022-09-11T07:50:21.755Z,82.80
2022-09-11T07:52:29.330Z,82.20
2022-09-11T07:54:40.299Z,81.80
2022-09-11T07:56:49.218Z,82.40
2022-09-11T07:58:57.727Z,82.20
2022-09-11T08:01:06.170Z,81.70
2022-09-11T08:03:13.217Z,80.90
2022-09-11T08:05:22.660Z,81.00
2022-09-11T08:07:30.034Z,80.40
2022-09-11T08:09:37.216Z,80.00
2022-09-11T08:11:47.009Z,79.50
2022-09-11T08:13:58.191Z,78.90
2022-09-11T08:16:05.737Z,78.50
2022-09-11T08:18:13.207Z,78.00
2022-09-11T08:20:21.310Z,78.50
2022-09-11T08:22:37.515Z,78.40
2022-09-11T08:24:45.209Z,78.90
2022-09-11T08:26:56.268Z,80.10
2022-09-11T08:29:07.608Z,80.90
2022-09-11T08:31:15.986Z,81.10
2022-09-11T08:33:23.197Z,81.00
2022-09-11T08:35:30.487Z,80.80
2022-09-11T08:37:37.663Z,80.60
2022-09-11T08:39:45.322Z,80.90
2022-09-11T08:41:57.609Z,81.50
2022-09-11T08:44:09.498Z,81.80
2022-09-11T08:46:18.108Z,82.20
2022-09-11T08:48:33.327Z,82.80
2022-09-11T08:50:44.198Z,82.20
2022-09-11T08:52:55.355Z,81.60
2022-09-11T08:55:04.761Z,81.80
2022-09-11T08:57:21.109Z,81.60
2022-09-11T08:59:40.271Z,81.80
2022-09-11T09:01:56.188Z,82.10
2022-09-11T09:04:15.013Z,82.00
2022-09-11T09:06:41.185Z,82.10
2022-09-11T09:08:59.063Z,82.10
2022-09-11T09:11:14.140Z,82.30
2022-09-11T09:13:39.529Z,82.50
2022-09-11T09:15:57.278Z,82.40
2022-09-11T09:18:09.370Z,83.00
2022-09-11T09:20:20.291Z,83.70
2022-09-11T09:22:34.181Z,84.40
2022-09-11T09:24:49.717Z,85.00
2022-09-11T09:26:59.805Z,85.40
2022-09-11T09:29:12.775Z,85.70
2022-09-11T09:31:25.513Z,86.10
2022-09-11T09:33:37.215Z,86.70
2022-09-11T09:35:49.016Z,87.00
2022-09-11T09:37:59.625Z,87.10
2022-09-11T09:40:12.390Z,87.30
2022-09-11T09:42:43.581Z,87.30
2022-09-11T09:45:12.065Z,86.90
2022-09-11T09:47:21.853Z,87.00
2022-09-11T09:49:31.138Z,87.00
2022-09-11T09:51:38.677Z,86.10
2022-09-11T09:53:48.931Z,85.40
2022-09-11T09:55:57.854Z,84.70
2022-09-11T09:58:04.623Z,84.40
2022-09-11T10:00:20.970Z,84.30
2022-09-11T10:02:43.407Z,84.00
2022-09-11T10:05:09.331Z,83.20
2022-09-11T10:07:21.889Z,83.50
2022-09-11T10:09:33.367Z,83.80
2022-09-11T10:11:39.785Z,83.50
2022-09-11T10:13:55.980Z,83.20
2022-09-11T10:16:05.033Z,83.60
2022-09-11T10:18:43.645Z,83.10
2022-09-11T10:20:50.713Z,82.80
2022-09-11T10:22:59.012Z,83.30
2022-09-11T10:25:24.892Z,83.20
2022-09-11T10:27:36.521Z,83.50
2022-09-11T10:29:53.066Z,83.70
2022-09-11T10:32:03.527Z,83.10
2022-09-11T10:34:20.333Z,83.00
2022-09-11T10:36:29.968Z,83.20
2022-09-11T10:38:41.640Z,83.90
2022-09-11T10:41:02.251Z,84.40
2022-09-11T10:43:09.591Z,84.70
2022-09-11T10:45:19.996Z,84.90
2022-09-11T10:47:29.483Z,85.10
2022-09-11T10:49:38.499Z,85.20
2022-09-11T10:52:00.173Z,85.40
2022-09-11T10:54:26.216Z,85.60
2022-09-11T10:56:33.901Z,85.50
2022-09-11T10:58:46.452Z,85.70
2022-09-11T11:00:54.517Z,86.00
2022-09-11T11:03:07.976Z,86.10
2022-09-11T11:05:25.815Z,86.60
2022-09-11T11:07:58.654Z,87.10
2022-09-11T11:10:21.645Z,88.20
2022-09-11T11:12:46.849Z,89.00
2022-09-11T11:15:32.085Z,90.00
2022-09-11T11:17:45.503Z,91.20
2022-09-11T11:20:10.455Z,91.70
2022-09-11T11:22:31.001Z,92.70
2022-09-11T11:24:52.976Z,93.30
2022-09-11T11:27:13.116Z,93.50
2022-09-11T11:29:41.693Z,93.80
2022-09-11T11:32:08.132Z,93.90
2022-09-11T11:34:32.517Z,93.60
2022-09-11T11:36:44.101Z,93.80
2022-09-11T11:39:01.623Z,94.20
2022-09-11T11:41:15.666Z,94.60
2022-09-11T11:43:26.789Z,94.70
2022-09-11T11:45:39.226Z,95.00
2022-09-11T11:47:48.475Z,95.20
2022-09-11T11:50:02.367Z,95.30
2022-09-11T11:52:19.580Z,95.50
2022-09-11T11:54:34.032Z,95.70
2022-09-11T11:56:46.128Z,95.90
2022-09-11T11:58:55.153Z,96.30
2022-09-11T12:01:06.495Z,96.60
2022-09-11T12:03:18.366Z,96.30
2022-09-11T12:05:27.707Z,96.40
2022-09-11T12:07:37.799Z,96.40
2022-09-11T12:09:50.723Z,96.50
2022-09-11T12:11:59.279Z,96.20
2022-09-11T12:14:06.986Z,95.90
2022-09-11T12:16:21.996Z,95.80
2022-09-11T12:18:29.387Z,96.30
2022-09-11T12:20:42.401Z,96.70
2022-09-11T12:22:50.814Z,97.10
2022-09-11T12:25:01.579Z,97.40
2022-09-11T12:27:52.327Z,97.50
2022-09-11T12:30:00.891Z,97.60
2022-09-11T12:32:30.247Z,97.50
2022-09-11T12:35:06.818Z,97.70
2022-09-11T12:37:17.943Z,97.70
2022-09-11T12:39:33.255Z,97.80
2022-09-11T12:41:42.083Z,97.90
2022-09-11T12:43:51.773Z,98.10
2022-09-11T12:45:59.658Z,98.60
2022-09-11T12:48:10.290Z,98.60
2022-09-11T12:50:24.632Z,98.60
2022-09-11T12:52:38.984Z,98.60
2022-09-11T12:54:46.580Z,98.80
2022-09-11T12:57:04.670Z,99.10
2022-09-11T12:59:13.280Z,99.20
2022-09-11T13:01:24.653Z,99.40
2022-09-11T13:03:32.816Z,99.60
2022-09-11T13:05:42.300Z,99.70
2022-09-11T13:07:52.901Z,99.60
2022-09-11T13:10:01.627Z,99.60
2022-09-11T13:12:51.919Z,99.60
2022-09-11T13:15:00.147Z,99.80
2022-09-11T13:17:16.464Z,99.90
2022-09-11T13:19:23.848Z,99.90
2022-09-11T13:21:31.139Z,99.90
2022-09-11T13:23:38.066Z,99.90
2022-09-11T13:25:46.219Z,99.90
2022-09-11T13:27:57.246Z,99.90
2022-09-11T13:30:05.449Z,99.90
2022-09-11T13:32:16.632Z,99.90
2022-09-11T13:34:25.392Z,99.90
2022-09-11T13:36:34.519Z,99.90
2022-09-11T13:38:43.497Z,99.90
2022-09-11T13:40:53.034Z,99.90
2022-09-11T13:43:03.893Z,99.90
2022-09-11T13:45:16.456Z,99.90
2022-09-11T13:47:26.138Z,99.90
2022-09-11T13:49:38.443Z,99.90
2022-09-11T13:51:48.449Z,99.90
2022-09-11T13:54:05.094Z,99.90
2022-09-11T13:56:22.777Z,99.90
2022-09-11T13:58:36.769Z,99.90
2022-09-11T14:00:46.000Z,99.90
2022-09-11T14:02:55.126Z,99.90
2022-09-11T14:05:11.362Z,99.90
2022-09-11T14:07:24.132Z,99.90
2022-09-11T14:09:31.263Z,99.90
2022-09-11T14:11:38.746Z,99.90
2022-09-11T14:13:50.131Z,99.90
2022-09-11T14:15:59.849Z,99.90
2022-09-11T14:18:09.811Z,99.90
2022-09-11T14:20:21.962Z,99.90
2022-09-11T14:22:33.399Z,99.90
2022-09-11T14:24:40.273Z,99.90
2022-09-11T14:26:47.200Z,99.90
2022-09-11T14:29:04.160Z,99.90
2022-09-11T14:31:15.022Z,99.90
2022-09-11T14:33:27.576Z,99.90
2022-09-11T14:35:34.871Z,99.90
2022-09-11T14:37:46.804Z,99.90
2022-09-11T14:39:57.877Z,99.90
2022-09-11T14:42:06.142Z,99.90
2022-09-11T14:44:17.979Z,99.90
2022-09-11T14:46:25.183Z,99.90
2022-09-11T14:48:33.266Z,99.90
2022-09-11T14:50:41.620Z,99.90
2022-09-11T14:52:48.752Z,99.90
2022-09-11T14:54:56.674Z,99.90
2022-09-11T14:57:04.861Z,99.90
2022-09-11T14:59:14.343Z,99.90
2022-09-11T15:01:21.649Z,99.90
2022-09-11T15:03:30.146Z,99.90
2022-09-11T15:05:37.128Z,99.90
2022-09-11T15:07:46.606Z,99.90
2022-09-11T15:09:54.556Z,99.90
2022-09-11T15:12:01.847Z,99.90
2022-09-11T15:14:20.742Z,99.90
2022-09-11T15:16:36.634Z,99.90
2022-09-11T15:18:43.761Z,99.90
2022-09-11T15:20:50.996Z,99.90
2022-09-11T15:22:58.381Z,99.90
2022-09-11T15:25:05.619Z,99.90
2022-09-11T15:27:13.053Z,99.90
2022-09-11T15:29:19.920Z,99.90
2022-09-11T15:31:27.555Z,99.90
2022-09-11T15:33:36.329Z,99.90
2022-09-11T15:35:43.473Z,99.90
2022-09-11T15:37:50.651Z,99.90
2022-09-11T15:39:57.739Z,99.90
2022-09-11T15:42:04.815Z,99.90
2022-09-11T15:44:13.834Z,99.90
2022-09-11T15:46:23.889Z,99.90
2022-09-11T15:48:33.325Z,99.90
2022-09-11T15:50:42.036Z,99.90
2022-09-11T15:52:49.266Z,99.90
2022-09-11T15:54:56.653Z,99.90
2022-09-11T15:57:04.245Z,99.90
2022-09-11T15:59:12.760Z,99.90
2022-09-11T16:01:24.189Z,99.90
2022-09-11T16:03:31.680Z,99.90
2022-09-11T16:05:45.105Z,99.90
2022-09-11T16:07:51.929Z,99.90
2022-09-11T16:09:59.986Z,99.90
2022-09-11T16:12:07.828Z,99.90
2022-09-11T16:14:21.261Z,99.90
2022-09-11T16:16:28.946Z,99.90
2022-09-11T16:18:39.050Z,99.90
2022-09-11T16:20:48.069Z,99.90
2022-09-11T16:22:55.868Z,99.90
2022-09-11T16:25:03.257Z,99.90
2022-09-11T16:27:11.879Z,99.90
2022-09-11T16:29:19.250Z,99.90
2022-09-11T16:31:26.331Z,99.90
2022-09-11T16:33:33.865Z,99.90
2022-09-11T16:35:41.154Z,99.90
2022-09-11T16:37:50.254Z,99.90
2022-09-11T16:39:57.517Z,99.90
2022-09-11T16:42:04.602Z,99.90
2022-09-11T16:44:14.904Z,99.90
2022-09-11T16:46:24.097Z,99.90
2022-09-11T16:48:32.396Z,99.90
2022-09-11T16:50:39.268Z,99.90
2022-09-11T16:52:46.293Z,99.90
2022-09-11T16:54:54.910Z,99.90
2022-09-11T16:57:01.840Z,99.90
2022-09-11T16:59:08.863Z,99.90
2022-09-11T17:01:17.617Z,99.90
2022-09-11T17:03:25.121Z,99.90
2022-09-11T17:05:32.410Z,99.90
2022-09-11T17:07:39.797Z,99.90
2022-09-11T17:09:47.323Z,99.90
2022-09-11T17:11:56.303Z,99.90
2022-09-11T17:14:05.223Z,99.90
2022-09-11T17:16:16.423Z,99.90
2022-09-11T17:18:23.735Z,99.90
2022-09-11T17:20:30.816Z,99.90
2022-09-11T17:22:38.572Z,99.90
2022-09-11T17:24:45.633Z,99.90
2022-09-11T17:26:54.868Z,99.90
2022-09-11T17:29:04.367Z,99.90
2022-09-11T17:31:12.699Z,99.90
2022-09-11T17:33:19.951Z,99.90
2022-09-11T17:35:27.288Z,99.90
2022-09-11T17:37:34.560Z,99.90
2022-09-11T17:39:42.699Z,99.90
2022-09-11T17:41:49.653Z,99.90
2022-09-11T17:43:59.470Z,99.90
2022-09-11T17:46:07.611Z,99.90
2022-09-11T17:48:14.680Z,99.90
2022-09-11T17:50:22.206Z,99.90
2022-09-11T17:52:29.340Z,99.90
2022-09-11T17:54:36.682Z,99.90
2022-09-11T17:56:44.118Z,99.90
2022-09-11T17:58:54.581Z,99.90
2022-09-11T18:01:03.899Z,99.90
2022-09-11T18:03:11.240Z,99.90
2022-09-11T18:05:19.545Z,99.90
2022-09-11T18:07:26.899Z,99.90
2022-09-11T18:09:34.323Z,99.90
2022-09-11T18:11:41.614Z,99.90
2022-09-11T18:13:48.679Z,99.90
2022-09-11T18:15:56.137Z,99.90
2022-09-11T18:18:05.151Z,99.90
2022-09-11T18:20:12.689Z,99.90
2022-09-11T18:22:20.014Z,99.90
2022-09-11T18:24:29.817Z,99.90
2022-09-11T18:26:41.046Z,99.90
2022-09-11T18:28:49.151Z,99.90
2022-09-11T18:30:57.096Z,99.90
2022-09-11T18:33:10.634Z,99.90
2022-09-11T18:35:18.523Z,99.90
2022-09-11T18:37:25.551Z,99.90
2022-09-11T18:39:32.840Z,99.90
2022-09-11T18:41:40.068Z,99.90
2022-09-11T18:43:47.406Z,99.90
2022-09-11T18:45:54.487Z,99.90
2022-09-11T18:48:01.711Z,99.90
2022-09-11T18:50:11.810Z,99.90
2022-09-11T18:52:23.969Z,99.90
2022-09-11T18:54:33.713Z,99.90
2022-09-11T18:56:41.552Z,99.90
2022-09-11T18:58:51.603Z,99.90
2022-09-11T19:01:01.163Z,99.90
2022-09-11T19:03:08.691Z,99.90
2022-09-11T19:05:18.424Z,99.90
2022-09-11T19:07:25.553Z,99.90
2022-09-11T19:09:32.473Z,99.90
2022-09-11T19:11:40.427Z,99.90
2022-09-11T19:13:48.164Z,99.90
2022-09-11T19:16:00.306Z,99.90
2022-09-11T19:18:07.705Z,99.90
2022-09-11T19:20:16.532Z,99.90
2022-09-11T19:22:26.011Z,99.90
2022-09-11T19:24:33.503Z,99.90
2022-09-11T19:26:42.174Z,99.90
2022-09-11T19:28:50.372Z,99.90
2022-09-11T19:31:01.734Z,99.90
2022-09-11T19:33:08.947Z,99.90
2022-09-11T19:35:17.604Z,99.90
2022-09-11T19:37:25.510Z,99.90
2022-09-11T19:39:32.634Z,99.90
2022-09-11T19:41:41.092Z,99.90
2022-09-11T19:43:48.835Z,99.90
2022-09-11T19:46:04.001Z,99.90
2022-09-11T19:48:10.784Z,99.90
2022-09-11T19:50:23.181Z,99.90
2022-09-11T19:52:33.030Z,99.90
2022-09-11T19:54:40.875Z,99.90
2022-09-11T19:56:48.152Z,99.90
2022-09-11T19:58:56.172Z,99.90
2022-09-11T20:01:06.989Z,99.90
2022-09-11T20:03:14.515Z,99.90
2022-09-11T20:05:23.233Z,99.90
2022-09-11T20:07:30.464Z,99.90
2022-09-11T20:09:37.761Z,99.90
2022-09-11T20:11:44.770Z,99.90
2022-09-11T20:13:52.268Z,99.90
2022-09-11T20:16:00.377Z,99.90
2022-09-11T20:18:08.569Z,99.90
2022-09-11T20:20:15.704Z,99.90
2022-09-11T20:22:25.958Z,99.90
2022-09-11T20:24:33.083Z,99.90
2022-09-11T20:26:40.318Z,99.90
2022-09-11T20:28:48.225Z,99.90
2022-09-11T20:30:55.402Z,99.90
2022-09-11T20:33:02.589Z,99.90
2022-09-11T20:35:11.047Z,99.90
2022-09-11T20:37:17.818Z,99.90
2022-09-11T20:39:26.785Z,99.90
2022-09-11T20:41:34.582Z,99.90
2022-09-11T20:43:41.825Z,99.90
2022-09-11T20:45:51.715Z,99.90
2022-09-11T20:48:00.516Z,99.90
2022-09-11T20:50:08.483Z,99.90
2022-09-11T20:52:15.974Z,99.90
2022-09-11T20:54:24.690Z,99.90
2022-09-11T20:56:31.769Z,99.90
2022-09-11T20:58:39.719Z,99.90
2022-09-11T21:00:48.090Z,99.90
2022-09-11T21:02:55.406Z,99.90
2022-09-11T21:05:05.926Z,99.90
2022-09-11T21:07:13.362Z,99.90
2022-09-11T21:09:20.441Z,99.90
2022-09-11T21:11:30.592Z,99.90
2022-09-11T21:13:39.160Z,99.90
2022-09-11T21:15:46.953Z,99.90
2022-09-11T21:17:54.702Z,99.90
2022-09-11T21:20:01.678Z,99.90
2022-09-11T21:22:09.061Z,99.90
2022-09-11T21:24:17.061Z,99.90
2022-09-11T21:26:23.983Z,99.90
2022-09-11T21:28:33.829Z,99.90
2022-09-11T21:30:42.446Z,99.90
2022-09-11T21:32:49.476Z,99.90
2022-09-11T21:34:56.706Z,99.90
2022-09-11T21:37:03.789Z,99.90
2022-09-11T21:39:10.866Z,99.90
2022-09-11T21:41:18.409Z,99.90
2022-09-11T21:43:25.753Z,99.90
2022-09-11T21:45:34.565Z,99.90
2022-09-11T21:47:41.481Z,99.90
2022-09-11T21:49:48.824Z,99.90
2022-09-11T21:51:55.957Z,99.90
2022-09-11T21:54:03.339Z,99.90
2022-09-11T21:56:10.729Z,99.90
2022-09-11T21:58:20.207Z,99.90
2022-09-11T22:00:27.333Z,99.90
2022-09-11T22:02:36.165Z,99.90
2022-09-11T22:04:43.596Z,99.90
2022-09-11T22:06:50.567Z,99.90
2022-09-11T22:08:58.370Z,99.90
2022-09-11T22:11:06.884Z,99.90
2022-09-11T22:13:14.119Z,99.90
2022-09-11T22:15:21.861Z,99.90
2022-09-11T22:17:29.810Z,99.90
2022-09-11T22:19:38.732Z,99.90
2022-09-11T22:21:45.763Z,99.90
2022-09-11T22:23:52.964Z,99.90
2022-09-11T22:26:05.198Z,99.90
2022-09-11T22:28:11.196Z,99.90
2022-09-11T22:30:18.425Z,99.90
2022-09-11T22:32:25.253Z,99.90
2022-09-11T22:34:32.535Z,99.90
2022-09-11T22:36:41.318Z,99.90
2022-09-11T22:38:48.621Z,99.90
2022-09-11T22:40:58.592Z,99.90
2022-09-11T22:43:05.723Z,99.90
2022-09-11T22:45:13.668Z,99.90
2022-09-11T22:47:20.695Z,99.90
2022-09-11T22:49:27.673Z,99.90
2022-09-11T22:51:35.316Z,99.90
2022-09-11T22:53:44.431Z,99.90
2022-09-11T22:55:52.440Z,99.90
2022-09-11T22:57:59.319Z,99.90
2022-09-11T23:00:08.605Z,99.90
2022-09-11T23:02:16.074Z,99.90
2022-09-11T23:04:23.371Z,99.90
2022-09-11T23:06:46.732Z,99.90
2022-09-11T23:08:56.127Z,99.90
2022-09-11T23:11:08.319Z,99.90
2022-09-11T23:13:16.367Z,99.90
2022-09-11T23:15:24.271Z,99.90
2022-09-11T23:17:31.548Z,99.90
2022-09-11T23:19:38.631Z,99.90
2022-09-11T23:21:46.271Z,99.90
2022-09-11T23:23:56.165Z,99.90
2022-09-11T23:26:03.554Z,99.90
2022-09-11T23:28:10.677Z,99.90
2022-09-11T23:30:18.324Z,99.90
2022-09-11T23:32:25.508Z,99.90
2022-09-11T23:34:32.841Z,99.90
2022-09-11T23:36:40.071Z,99.90
2022-09-11T23:38:48.691Z,99.90
2022-09-11T23:40:57.303Z,99.90
2022-09-11T23:43:04.633Z,99.90
2022-09-11T23:45:13.870Z,99.90
2022-09-11T23:47:21.000Z,99.90
2022-09-11T23:49:27.926Z,99.90
2022-09-11T23:51:35.468Z,99.90
2022-09-11T23:53:44.702Z,99.90
2022-09-11T23:55:51.927Z,99.90
2022-09-11T23:58:00.597Z,99.90
